createdAt,value
2022-12-01T00:02:10.639Z,54.60
2022-12-01T00:04:37.812Z,55.13
2022-12-01T00:07:04.862Z,53.20
2022-12-01T00:09:50.582Z,63.17
2022-12-01T00:12:17.756Z,51.50
2022-12-01T00:14:54.700Z,53.60
2022-12-01T00:17:22.484Z,54.60
2022-12-01T00:19:49.842Z,57.87
2022-12-01T00:22:17.104Z,54.83
2022-12-01T00:24:44.134Z,52.17
2022-12-01T00:27:11.189Z,47.27
2022-12-01T00:29:38.227Z,51.70
2022-12-01T00:32:05.502Z,52.13
2022-12-01T00:34:32.662Z,50.67
2022-12-01T00:37:00.346Z,55.63
2022-12-01T00:39:27.405Z,56.17
2022-12-01T00:41:54.581Z,54.57
2022-12-01T00:44:21.700Z,60.80
2022-12-01T00:46:48.848Z,54.87
2022-12-01T00:49:16.515Z,50.53
2022-12-01T00:51:43.644Z,51.57
2022-12-01T00:54:10.681Z,42.30
2022-12-01T00:56:37.743Z,52.17
2022-12-01T00:59:04.822Z,42.50
2022-12-01T01:01:31.942Z,39.63
2022-12-01T01:03:59.188Z,44.60
2022-12-01T01:06:26.222Z,43.97
2022-12-01T01:08:53.455Z,37.57
2022-12-01T01:11:20.555Z,38.90
2022-12-01T01:13:47.663Z,41.80
2022-12-01T01:16:16.224Z,45.37
2022-12-01T01:18:43.404Z,44.50
2022-12-01T01:21:12.707Z,38.80
2022-12-01T01:23:40.256Z,38.80
2022-12-01T01:26:08.565Z,42.63
2022-12-01T01:28:35.971Z,47.07
2022-12-01T01:31:06.950Z,37.93
2022-12-01T01:33:34.403Z,34.97
2022-12-01T01:36:01.948Z,43.37
2022-12-01T01:38:29.283Z,42.33
2022-12-01T01:40:56.590Z,42.70
2022-12-01T01:43:39.134Z,43.93
2022-12-01T01:46:06.709Z,45.77
2022-12-01T01:48:34.898Z,42.17
2022-12-01T01:51:02.516Z,47.97
2022-12-01T01:53:29.577Z,40.30
2022-12-01T01:55:56.808Z,48.67
2022-12-01T01:58:24.143Z,40.23
2022-12-01T02:00:51.246Z,45.83
2022-12-01T02:03:19.164Z,43.20
2022-12-01T02:05:46.888Z,46.70
2022-12-01T02:08:13.943Z,39.27
2022-12-01T02:10:40.961Z,43.53
2022-12-01T02:13:23.426Z,42.63
2022-12-01T02:16:06.900Z,41.50
2022-12-01T02:18:39.744Z,37.90
2022-12-01T02:21:42.039Z,39.07
2022-12-01T02:24:27.630Z,30.83
2022-12-01T02:27:07.663Z,37.93
2022-12-01T02:29:49.998Z,32.33
2022-12-01T02:32:17.231Z,32.37
2022-12-01T02:35:01.268Z,33.30
2022-12-01T02:37:44.507Z,35.33
2022-12-01T02:40:11.747Z,39.67
2022-12-01T02:42:50.500Z,33.43
2022-12-01T02:45:21.247Z,30.37
2022-12-01T02:47:49.863Z,32.23
2022-12-01T02:50:17.608Z,34.43
2022-12-01T02:52:44.944Z,35.23
2022-12-01T02:55:13.490Z,35.77
2022-12-01T02:57:40.562Z,39.30
2022-12-01T03:00:12.991Z,35.63
2022-12-01T03:02:49.423Z,35.93
2022-12-01T03:05:19.383Z,41.70
2022-12-01T03:08:13.852Z,38.67
2022-12-01T03:10:54.090Z,36.77
2022-12-01T03:13:36.080Z,38.77
2022-12-01T03:16:08.980Z,35.90
2022-12-01T03:18:36.119Z,38.17
2022-12-01T03:21:09.486Z,47.27
2022-12-01T03:23:39.215Z,41.87
2022-12-01T03:26:08.272Z,35.23
2022-12-01T03:28:38.783Z,36.87
2022-12-01T03:31:07.245Z,38.87
2022-12-01T03:33:41.533Z,37.23
2022-12-01T03:36:11.724Z,47.87
2022-12-01T03:38:41.101Z,41.70
2022-12-01T03:41:11.228Z,40.00
2022-12-01T03:43:41.846Z,47.27
2022-12-01T03:46:20.438Z,44.73
2022-12-01T03:48:47.576Z,46.27
2022-12-01T03:51:14.657Z,51.30
2022-12-01T03:53:49.334Z,42.57
2022-12-01T03:56:18.479Z,45.90
2022-12-01T03:58:47.938Z,45.23
2022-12-01T04:01:15.226Z,49.17
2022-12-01T04:03:42.353Z,49.83
2022-12-01T04:06:09.406Z,52.00
2022-12-01T04:08:37.456Z,49.73
2022-12-01T04:11:28.205Z,54.77
2022-12-01T04:13:58.135Z,56.10
2022-12-01T04:16:25.257Z,50.97
2022-12-01T04:18:52.320Z,49.03
2022-12-01T04:21:19.393Z,57.67
2022-12-01T04:24:01.752Z,45.50
2022-12-01T04:26:29.963Z,46.57
2022-12-01T04:28:57.049Z,55.60
2022-12-01T04:31:24.237Z,49.93
2022-12-01T04:33:51.296Z,55.53
2022-12-01T04:36:18.353Z,61.33
2022-12-01T04:38:45.381Z,45.50
2022-12-01T04:41:13.113Z,53.17
2022-12-01T04:43:40.296Z,52.90
2022-12-01T04:46:07.514Z,50.23
2022-12-01T04:48:35.882Z,47.77
2022-12-01T04:51:03.830Z,54.60
2022-12-01T04:53:30.875Z,50.97
2022-12-01T04:55:57.937Z,50.37
2022-12-01T04:58:24.947Z,56.40
2022-12-01T05:00:52.157Z,57.47
2022-12-01T05:03:19.296Z,59.63
2022-12-01T05:05:45.936Z,60.83
2022-12-01T05:08:12.577Z,60.83
2022-12-01T05:10:39.360Z,60.77
2022-12-01T05:13:06.494Z,62.60
2022-12-01T05:15:33.274Z,60.23
2022-12-01T05:18:00.652Z,58.37
2022-12-01T05:20:46.066Z,58.20
2022-12-01T05:23:16.709Z,60.13
2022-12-01T05:25:43.870Z,61.20
2022-12-01T05:28:10.612Z,61.03
2022-12-01T05:30:37.276Z,56.67
2022-12-01T05:33:03.945Z,48.13
2022-12-01T05:35:32.475Z,54.00
2022-12-01T05:38:01.967Z,52.93
2022-12-01T05:40:33.045Z,57.20
2022-12-01T05:42:59.838Z,57.83
2022-12-01T05:45:26.584Z,50.20
2022-12-01T05:47:56.948Z,58.97
2022-12-01T05:50:24.783Z,65.43
2022-12-01T05:52:51.588Z,59.67
2022-12-01T05:55:18.605Z,56.17
2022-12-01T05:57:45.410Z,56.83
2022-12-01T06:00:13.755Z,51.97
2022-12-01T06:02:41.357Z,53.10
2022-12-01T06:05:09.237Z,51.93
2022-12-01T06:07:36.262Z,49.90
2022-12-01T06:10:03.506Z,52.37
2022-12-01T06:12:30.142Z,49.00
2022-12-01T06:14:56.827Z,49.77
2022-12-01T06:17:23.709Z,44.47
2022-12-01T06:19:50.520Z,45.67
2022-12-01T06:22:17.349Z,54.67
2022-12-01T06:24:44.107Z,52.30
2022-12-01T06:27:10.733Z,41.97
2022-12-01T06:29:41.959Z,46.47
2022-12-01T06:32:10.209Z,49.40
2022-12-01T06:34:36.857Z,41.93
2022-12-01T06:37:03.520Z,47.63
2022-12-01T06:39:30.133Z,43.90
2022-12-01T06:41:56.759Z,39.37
2022-12-01T06:44:23.397Z,47.50
2022-12-01T06:46:52.815Z,38.97
2022-12-01T06:49:20.143Z,44.97
2022-12-01T06:51:49.245Z,42.30
2022-12-01T06:54:17.754Z,36.50
2022-12-01T06:56:45.910Z,33.27
2022-12-01T06:59:13.060Z,28.93
2022-12-01T07:01:40.129Z,34.67
2022-12-01T07:04:06.804Z,31.83
2022-12-01T07:06:33.716Z,37.83
2022-12-01T07:09:00.324Z,42.40
2022-12-01T07:11:27.036Z,31.10
2022-12-01T07:13:56.804Z,35.83
2022-12-01T07:16:23.581Z,39.80
2022-12-01T07:18:50.884Z,30.73
2022-12-01T07:21:17.584Z,39.00
2022-12-01T07:23:44.295Z,44.37
2022-12-01T07:26:16.364Z,41.40
2022-12-01T07:28:43.806Z,42.53
2022-12-01T07:31:19.018Z,35.53
2022-12-01T07:33:46.088Z,37.07
2022-12-01T07:36:14.379Z,37.37
2022-12-01T07:38:41.910Z,39.67
2022-12-01T07:41:19.270Z,36.90
2022-12-01T07:43:46.770Z,31.90
2022-12-01T07:46:23.636Z,34.13
2022-12-01T07:48:50.914Z,35.13
2022-12-01T07:51:17.977Z,30.00
2022-12-01T07:53:46.526Z,31.87
2022-12-01T07:56:13.561Z,39.50
2022-12-01T07:58:40.590Z,32.17
2022-12-01T08:01:12.765Z,39.50
2022-12-01T08:03:40.124Z,39.90
2022-12-01T08:06:07.982Z,30.47
2022-12-01T08:08:36.400Z,29.63
2022-12-01T08:11:06.721Z,32.53
2022-12-01T08:13:33.893Z,32.43
2022-12-01T08:16:04.256Z,27.67
2022-12-01T08:18:30.929Z,28.43
2022-12-01T08:21:00.299Z,32.50
2022-12-01T08:23:27.240Z,35.63
2022-12-01T08:25:53.990Z,34.07
2022-12-01T08:28:21.236Z,32.90
2022-12-01T08:30:48.025Z,34.00
2022-12-01T08:33:14.745Z,36.27
2022-12-01T08:35:41.434Z,38.03
2022-12-01T08:38:08.490Z,39.33
2022-12-01T08:40:35.536Z,43.43
2022-12-01T08:43:02.662Z,37.53
2022-12-01T08:45:29.759Z,45.03
2022-12-01T08:47:58.945Z,39.40
2022-12-01T08:50:26.690Z,45.30
2022-12-01T08:52:53.746Z,44.23
2022-12-01T08:55:22.057Z,44.37
2022-12-01T08:57:49.200Z,49.50
2022-12-01T09:00:16.711Z,47.20
2022-12-01T09:02:43.754Z,51.67
2022-12-01T09:05:11.033Z,50.37
2022-12-01T09:07:38.269Z,47.37
2022-12-01T09:10:05.917Z,50.47
2022-12-01T09:12:33.009Z,59.93
2022-12-01T09:15:00.074Z,54.10
2022-12-01T09:17:27.125Z,58.13
2022-12-01T09:19:54.165Z,62.90
2022-12-01T09:22:21.187Z,56.17
2022-12-01T09:24:48.230Z,53.23
2022-12-01T09:27:15.248Z,59.97
2022-12-01T09:29:42.282Z,58.63
2022-12-01T09:32:09.308Z,61.73
2022-12-01T09:34:36.378Z,57.83
2022-12-01T09:37:03.471Z,55.63
2022-12-01T09:39:30.571Z,54.43
2022-12-01T09:42:00.296Z,57.30
2022-12-01T09:44:27.306Z,57.77
2022-12-01T09:46:58.479Z,56.63
2022-12-01T09:49:35.067Z,60.27
2022-12-01T09:52:02.176Z,57.53
2022-12-01T09:54:29.912Z,58.20
2022-12-01T09:56:59.441Z,57.23
2022-12-01T09:59:27.800Z,53.93
2022-12-01T10:02:01.474Z,64.97
2022-12-01T10:04:28.588Z,58.33
2022-12-01T10:07:03.702Z,60.27
2022-12-01T10:09:33.520Z,65.13
2022-12-01T10:12:05.225Z,60.37
2022-12-01T10:14:34.441Z,62.77
2022-12-01T10:17:13.068Z,61.17
2022-12-01T10:19:47.750Z,65.47
2022-12-01T10:22:15.036Z,66.20
2022-12-01T10:24:55.744Z,63.93
2022-12-01T10:27:28.725Z,66.07
2022-12-01T10:29:55.747Z,66.90
2022-12-01T10:32:35.137Z,70.10
2022-12-01T10:35:02.225Z,75.90
2022-12-01T10:37:30.433Z,70.37
2022-12-01T10:39:58.518Z,63.13
2022-12-01T10:42:30.855Z,70.67
2022-12-01T10:45:00.408Z,69.90
2022-12-01T10:47:28.793Z,63.97
2022-12-01T10:49:56.333Z,75.90
2022-12-01T10:52:37.595Z,68.77
2022-12-01T10:55:26.277Z,71.10
2022-12-01T10:57:54.455Z,63.57
2022-12-01T11:00:51.372Z,62.97
2022-12-01T11:03:21.731Z,67.93
2022-12-01T11:05:53.764Z,64.13
2022-12-01T11:08:25.349Z,68.50
2022-12-01T11:10:52.555Z,70.60
2022-12-01T11:13:24.388Z,62.40
2022-12-01T11:15:54.981Z,74.47
2022-12-01T11:18:32.833Z,64.90
2022-12-01T11:21:11.209Z,66.90
2022-12-01T11:23:39.134Z,74.90
2022-12-01T11:26:14.290Z,68.93
2022-12-01T11:28:43.754Z,62.43
2022-12-01T11:31:11.483Z,72.07
2022-12-01T11:33:43.706Z,62.17
2022-12-01T11:36:16.072Z,66.93
2022-12-01T11:38:43.407Z,69.27
2022-12-01T11:41:23.731Z,62.20
2022-12-01T11:44:01.209Z,64.10
2022-12-01T11:46:33.381Z,60.73
2022-12-01T11:49:01.006Z,63.83
2022-12-01T11:51:31.782Z,62.83
2022-12-01T11:54:06.642Z,56.70
2022-12-01T11:56:33.700Z,58.63
2022-12-01T11:59:12.157Z,57.17
2022-12-01T12:01:48.253Z,52.97
2022-12-01T12:04:18.090Z,58.83
2022-12-01T12:06:45.300Z,55.33
2022-12-01T12:09:26.603Z,56.00
2022-12-01T12:12:17.340Z,57.57
2022-12-01T12:14:49.394Z,60.33
2022-12-01T12:17:21.417Z,54.93
2022-12-01T12:20:18.296Z,65.20
2022-12-01T12:22:55.751Z,54.33
2022-12-01T12:25:28.241Z,55.30
2022-12-01T12:27:58.318Z,52.20
2022-12-01T12:30:29.786Z,54.93
2022-12-01T12:33:02.762Z,62.43
2022-12-01T12:35:45.570Z,60.57
2022-12-01T12:38:12.584Z,61.47
2022-12-01T12:40:45.243Z,66.67
2022-12-01T12:43:33.254Z,61.53
2022-12-01T12:46:06.475Z,71.20
2022-12-01T12:49:11.623Z,63.50
2022-12-01T12:51:37.713Z,64.07
2022-12-01T12:54:25.906Z,62.07
2022-12-01T12:56:55.657Z,58.13
2022-12-01T12:59:25.608Z,63.70
2022-12-01T13:01:58.731Z,65.60
2022-12-01T13:04:35.303Z,68.27
2022-12-01T13:07:21.366Z,61.07
2022-12-01T13:09:52.392Z,61.90
2022-12-01T13:12:29.397Z,62.20
2022-12-01T13:15:01.428Z,66.00
2022-12-01T13:17:35.580Z,59.53
2022-12-01T13:20:03.416Z,63.80
2022-12-01T13:22:31.616Z,60.40
2022-12-01T13:24:58.718Z,68.83
2022-12-01T13:27:27.441Z,60.47
2022-12-01T13:29:55.523Z,66.27
2022-12-01T13:32:36.467Z,62.47
2022-12-01T13:35:06.477Z,60.63
2022-12-01T13:37:35.339Z,65.87
2022-12-01T13:40:28.600Z,70.63
2022-12-01T13:42:58.298Z,59.37
2022-12-01T13:45:25.490Z,61.43
2022-12-01T13:47:54.343Z,61.93
2022-12-01T13:50:39.768Z,60.23
2022-12-01T13:53:25.734Z,58.47
2022-12-01T13:56:07.985Z,55.33
2022-12-01T13:58:35.041Z,54.90
2022-12-01T14:01:20.573Z,53.13
2022-12-01T14:04:20.298Z,60.13
2022-12-01T14:06:49.490Z,54.73
2022-12-01T14:09:32.449Z,58.33
2022-12-01T14:12:02.594Z,56.50
2022-12-01T14:14:35.235Z,60.20
2022-12-01T14:17:03.176Z,55.10
2022-12-01T14:19:30.240Z,61.87
2022-12-01T14:21:57.806Z,53.83
2022-12-01T14:24:27.770Z,59.03
2022-12-01T14:26:55.413Z,57.60
2022-12-01T14:29:48.587Z,58.00
2022-12-01T14:32:15.619Z,56.07
2022-12-01T14:34:43.339Z,57.40
2022-12-01T14:37:11.947Z,56.33
2022-12-01T14:39:42.261Z,53.67
2022-12-01T14:42:12.649Z,49.07
2022-12-01T14:44:43.281Z,55.50
2022-12-01T14:47:20.108Z,59.27
2022-12-01T14:49:49.898Z,57.93
2022-12-01T14:52:35.520Z,58.63
2022-12-01T14:55:05.437Z,58.30
2022-12-01T14:57:38.412Z,53.70
2022-12-01T15:00:10.938Z,52.43
2022-12-01T15:02:42.006Z,55.20
2022-12-01T15:05:11.462Z,54.43
2022-12-01T15:07:39.797Z,57.63
2022-12-01T15:10:07.422Z,53.47
2022-12-01T15:12:34.490Z,52.23
2022-12-01T15:15:02.601Z,60.77
2022-12-01T15:17:31.232Z,51.30
2022-12-01T15:19:58.380Z,55.67
2022-12-01T15:22:29.487Z,53.80
2022-12-01T15:25:05.717Z,55.40
2022-12-01T15:27:33.619Z,56.87
2022-12-01T15:30:04.360Z,56.00
2022-12-01T15:32:32.482Z,54.13
2022-12-01T15:35:04.689Z,53.03
2022-12-01T15:37:41.148Z,55.33
2022-12-01T15:40:59.696Z,61.70
2022-12-01T15:43:15.848Z,56.73
2022-12-01T15:45:48.950Z,56.90
2022-12-01T15:48:30.337Z,50.47
2022-12-01T15:51:14.825Z,54.10
2022-12-01T15:53:47.851Z,51.70
2022-12-01T15:56:15.103Z,52.50
2022-12-01T15:58:44.610Z,48.13
2022-12-01T16:01:13.625Z,49.47
2022-12-01T16:03:50.141Z,51.63
2022-12-01T16:06:17.840Z,50.63
2022-12-01T16:08:53.881Z,48.93
2022-12-01T16:11:21.962Z,54.10
2022-12-01T16:13:49.239Z,52.60
2022-12-01T16:16:28.487Z,48.50
2022-12-01T16:19:02.806Z,54.37
2022-12-01T16:21:34.502Z,52.43
2022-12-01T16:24:02.475Z,56.87
2022-12-01T16:26:30.103Z,56.83
2022-12-01T16:28:57.374Z,49.10
2022-12-01T16:31:25.970Z,50.40
2022-12-01T16:34:13.808Z,52.10
2022-12-01T16:36:50.363Z,59.13
2022-12-01T16:39:17.686Z,53.77
2022-12-01T16:41:46.666Z,52.60
2022-12-01T16:44:32.153Z,50.40
2022-12-01T16:46:59.238Z,50.73
2022-12-01T16:49:26.406Z,55.80
2022-12-01T16:51:56.507Z,51.40
2022-12-01T16:54:24.468Z,49.63
2022-12-01T16:56:51.529Z,49.57
2022-12-01T16:59:18.589Z,50.30
2022-12-01T17:01:45.730Z,53.00
2022-12-01T17:04:12.817Z,49.37
2022-12-01T17:06:40.042Z,48.40
2022-12-01T17:09:07.180Z,48.33
2022-12-01T17:11:34.264Z,46.20
2022-12-01T17:14:01.358Z,48.33
2022-12-01T17:16:28.463Z,42.80
2022-12-01T17:18:55.825Z,43.17
2022-12-01T17:21:22.884Z,43.03
2022-12-01T17:23:49.952Z,45.67
2022-12-01T17:26:17.848Z,45.63
2022-12-01T17:28:44.954Z,43.07
2022-12-01T17:31:12.395Z,41.43
2022-12-01T17:33:39.845Z,42.50
2022-12-01T17:36:14.091Z,42.40
2022-12-01T17:38:42.482Z,41.37
2022-12-01T17:41:10.592Z,43.10
2022-12-01T17:43:38.478Z,42.80
2022-12-01T17:46:06.783Z,43.10
2022-12-01T17:48:41.173Z,45.83
2022-12-01T17:51:09.003Z,42.80
2022-12-01T17:53:36.915Z,39.83
2022-12-01T17:56:06.657Z,40.80
2022-12-01T17:58:33.846Z,42.57
2022-12-01T18:01:01.035Z,44.27
2022-12-01T18:03:28.110Z,40.03
2022-12-01T18:05:56.267Z,42.97
2022-12-01T18:08:23.891Z,42.13
2022-12-01T18:10:50.953Z,38.97
2022-12-01T18:13:20.330Z,39.17
2022-12-01T18:15:48.477Z,38.73
2022-12-01T18:18:15.516Z,34.87
2022-12-01T18:20:43.458Z,42.43
2022-12-01T18:23:11.137Z,42.33
2022-12-01T18:25:38.411Z,38.53
2022-12-01T18:28:06.143Z,42.40
2022-12-01T18:30:34.488Z,47.60
2022-12-01T18:33:01.724Z,40.63
2022-12-01T18:35:31.707Z,39.07
2022-12-01T18:37:59.413Z,46.37
2022-12-01T18:40:26.456Z,41.97
2022-12-01T18:42:53.527Z,40.63
2022-12-01T18:45:21.468Z,41.07
2022-12-01T18:47:48.751Z,44.97
2022-12-01T18:50:15.891Z,41.67
2022-12-01T18:52:42.981Z,38.30
2022-12-01T18:55:10.068Z,43.80
2022-12-01T18:57:37.164Z,49.83
2022-12-01T19:00:07.502Z,49.97
2022-12-01T19:02:34.651Z,53.40
2022-12-01T19:05:01.741Z,49.17
2022-12-01T19:07:30.091Z,51.67
2022-12-01T19:09:57.331Z,51.83
2022-12-01T19:12:24.391Z,48.10
2022-12-01T19:14:52.989Z,48.00
2022-12-01T19:17:20.343Z,48.17
2022-12-01T19:19:47.429Z,45.83
2022-12-01T19:22:14.584Z,49.83
2022-12-01T19:24:44.768Z,47.63
2022-12-01T19:27:14.281Z,47.00
2022-12-01T19:29:41.349Z,45.73
2022-12-01T19:32:08.653Z,49.60
2022-12-01T19:34:35.681Z,51.97
2022-12-01T19:37:02.966Z,48.80
2022-12-01T19:39:30.064Z,48.33
2022-12-01T19:41:57.861Z,50.83
2022-12-01T19:44:24.978Z,45.70
2022-12-01T19:46:52.021Z,49.97
2022-12-01T19:49:19.100Z,48.37
2022-12-01T19:51:46.320Z,52.37
2022-12-01T19:54:14.772Z,47.83
2022-12-01T19:56:41.929Z,44.03
2022-12-01T19:59:11.244Z,49.37
2022-12-01T20:01:38.571Z,47.53
2022-12-01T20:04:05.812Z,49.53
2022-12-01T20:06:33.781Z,50.03
2022-12-01T20:09:02.050Z,46.33
2022-12-01T20:11:29.748Z,51.77
2022-12-01T20:13:56.944Z,44.60
2022-12-01T20:16:25.160Z,53.70
2022-12-01T20:18:53.044Z,50.67
2022-12-01T20:21:21.490Z,51.20
2022-12-01T20:23:49.580Z,47.07
2022-12-01T20:26:17.275Z,47.00
2022-12-01T20:28:45.522Z,50.57
2022-12-01T20:31:14.288Z,48.00
2022-12-01T20:33:41.830Z,43.73
2022-12-01T20:36:09.527Z,49.23
2022-12-01T20:38:36.696Z,43.90
2022-12-01T20:41:04.362Z,49.70
2022-12-01T20:43:31.549Z,48.00
2022-12-01T20:45:58.691Z,54.77
2022-12-01T20:48:26.197Z,54.10
2022-12-01T20:50:53.324Z,49.83
2022-12-01T20:53:20.754Z,62.87
2022-12-01T20:55:47.883Z,54.33
2022-12-01T20:58:14.938Z,56.03
2022-12-01T21:00:46.559Z,58.10
2022-12-01T21:03:14.077Z,50.40
2022-12-01T21:05:41.998Z,49.73
2022-12-01T21:08:10.389Z,54.20
2022-12-01T21:10:38.129Z,51.57
2022-12-01T21:13:39.449Z,48.00
2022-12-01T21:16:13.712Z,49.37
2022-12-01T21:18:55.384Z,50.23
2022-12-01T21:21:29.464Z,46.77
2022-12-01T21:24:09.403Z,53.57
2022-12-01T21:26:40.965Z,49.13
2022-12-01T21:29:21.521Z,47.87
2022-12-01T21:31:50.213Z,46.50
2022-12-01T21:34:24.696Z,43.10
2022-12-01T21:36:52.788Z,40.83
2022-12-01T21:39:21.327Z,48.20
2022-12-01T21:41:49.354Z,44.80
2022-12-01T21:44:18.777Z,48.27
2022-12-01T21:46:46.217Z,43.67
2022-12-01T21:49:13.251Z,44.83
2022-12-01T21:51:40.339Z,50.27
2022-12-01T21:54:11.138Z,44.27
2022-12-01T21:56:38.365Z,45.03
2022-12-01T21:59:20.158Z,51.37
2022-12-01T22:01:47.840Z,45.27
2022-12-01T22:04:22.223Z,48.50
2022-12-01T22:06:51.693Z,40.97
2022-12-01T22:09:30.822Z,57.10
2022-12-01T22:12:02.055Z,53.27
2022-12-01T22:14:35.862Z,52.83
2022-12-01T22:17:15.264Z,45.97
2022-12-01T22:19:45.690Z,45.23
2022-12-01T22:22:12.896Z,46.27
2022-12-01T22:24:41.309Z,44.13
2022-12-01T22:27:20.817Z,50.80
2022-12-01T22:29:48.830Z,45.20
2022-12-01T22:32:15.850Z,45.83
2022-12-01T22:34:45.950Z,49.93
2022-12-01T22:37:20.718Z,41.53
2022-12-01T22:39:48.501Z,47.47
2022-12-01T22:42:19.939Z,40.20
2022-12-01T22:44:47.440Z,42.67
2022-12-01T22:47:15.339Z,44.90
2022-12-01T22:49:42.954Z,45.27
2022-12-01T22:52:13.093Z,46.30
2022-12-01T22:54:43.535Z,43.57
2022-12-01T22:57:10.655Z,39.47
2022-12-01T22:59:42.191Z,39.90
2022-12-01T23:02:20.591Z,49.60
2022-12-01T23:04:49.006Z,45.93
2022-12-01T23:07:22.386Z,36.93
2022-12-01T23:09:49.522Z,32.20
2022-12-01T23:12:21.836Z,36.57
2022-12-01T23:14:50.529Z,38.97
2022-12-01T23:17:22.308Z,36.20
2022-12-01T23:19:50.494Z,32.23
2022-12-01T23:22:18.331Z,35.40
2022-12-01T23:24:45.895Z,35.20
2022-12-01T23:27:13.474Z,32.73
2022-12-01T23:29:40.613Z,37.57
2022-12-01T23:32:07.669Z,40.23
2022-12-01T23:34:35.096Z,42.67
2022-12-01T23:37:02.601Z,36.20
2022-12-01T23:39:32.625Z,34.33
2022-12-01T23:42:00.225Z,35.03
2022-12-01T23:44:27.294Z,38.77
2022-12-01T23:46:56.520Z,40.60
2022-12-01T23:49:26.147Z,39.27
2022-12-01T23:51:54.544Z,40.67
2022-12-01T23:54:21.673Z,43.70
2022-12-01T23:56:51.349Z,46.07
2022-12-01T23:59:18.692Z,35.67
